sensor_id;sensor_type;location;lat;lon;timestamp;pressure;altitude;pressure_sealevel;temperature;humidity
30614;BME280;17381;51.690;5.270;2023-03-01T00:05:42;103136.28;;;1.12;58.14
30614;BME280;17381;51.690;5.270;2023-03-01T00:08:56;103141.38;;;1.11;58.13
30614;BME280;17381;51.690;5.270;2023-03-01T00:12:24;103140.25;;;1.05;58.35
30614;BME280;17381;51.690;5.270;2023-03-01T00:15:32;103132.94;;;0.97;58.25
30614;BME280;17381;51.690;5.270;2023-03-01T00:18:24;103135.44;;;0.95;58.41
30614;BME280;17381;51.690;5.270;2023-03-01T00:21:25;103141.59;;;0.97;58.51
30614;BME280;17381;51.690;5.270;2023-03-01T00:24:53;103138.94;;;0.96;58.59
30614;BME280;17381;51.690;5.270;2023-03-01T00:27:52;103134.41;;;0.92;58.79
30614;BME280;17381;51.690;5.270;2023-03-01T00:37:12;103110.81;;;0.69;58.92
30614;BME280;17381;51.690;5.270;2023-03-01T00:40:16;103160.78;;;0.84;59.16
30614;BME280;17381;51.690;5.270;2023-03-01T00:43:17;103141.53;;;0.79;59.31
30614;BME280;17381;51.690;5.270;2023-03-01T00:46:11;103143.97;;;0.76;59.49
30614;BME280;17381;51.690;5.270;2023-03-01T00:48:51;103115.53;;;0.60;59.34
30614;BME280;17381;51.690;5.270;2023-03-01T00:51:44;103137.75;;;0.73;59.60
30614;BME280;17381;51.690;5.270;2023-03-01T00:54:44;103136.09;;;0.75;59.79
30614;BME280;17381;51.690;5.270;2023-03-01T00:57:31;103131.25;;;0.64;59.95
30614;BME280;17381;51.690;5.270;2023-03-01T01:00:52;103127.53;;;0.59;59.91
30614;BME280;17381;51.690;5.270;2023-03-01T01:04:09;103125.78;;;0.58;59.93
30614;BME280;17381;51.690;5.270;2023-03-01T01:07:27;103135.09;;;0.55;60.26
30614;BME280;17381;51.690;5.270;2023-03-01T01:10:26;103125.47;;;0.52;60.31
30614;BME280;17381;51.690;5.270;2023-03-01T01:13:18;103127.06;;;0.50;60.02
30614;BME280;17381;51.690;5.270;2023-03-01T01:19:20;103075.03;;;0.28;60.10
30614;BME280;17381;51.690;5.270;2023-03-01T01:22:32;103106.06;;;0.44;60.71
30614;BME280;17381;51.690;5.270;2023-03-01T01:25:54;103092.81;;;0.38;60.71
30614;BME280;17381;51.690;5.270;2023-03-01T01:32:36;103055.06;;;0.09;60.73
30614;BME280;17381;51.690;5.270;2023-03-01T01:35:34;103096.69;;;0.30;60.96
30614;BME280;17381;51.690;5.270;2023-03-01T01:38:16;103079.94;;;0.23;61.29
30614;BME280;17381;51.690;5.270;2023-03-01T01:41:02;103080.19;;;0.28;61.08
30614;BME280;17381;51.690;5.270;2023-03-01T01:44:29;103074.56;;;0.18;61.19
30614;BME280;17381;51.690;5.270;2023-03-01T01:47:35;103084.16;;;0.21;61.51
30614;BME280;17381;51.690;5.270;2023-03-01T01:50:44;103075.34;;;0.17;61.48
30614;BME280;17381;51.690;5.270;2023-03-01T01:53:50;103075.19;;;0.14;61.39
30614;BME280;17381;51.690;5.270;2023-03-01T01:56:35;103043.81;;;-0.08;61.47
30614;BME280;17381;51.690;5.270;2023-03-01T01:59:23;103060.81;;;0.03;61.64
30614;BME280;17381;51.690;5.270;2023-03-01T02:02:20;103063.47;;;0.05;61.56
30614;BME280;17381;51.690;5.270;2023-03-01T02:08:32;103027.84;;;-0.17;62.02
30614;BME280;17381;51.690;5.270;2023-03-01T02:11:48;103061.59;;;0.02;61.91
30614;BME280;17381;51.690;5.270;2023-03-01T02:14:45;103056.38;;;0.01;62.07
30614;BME280;17381;51.690;5.270;2023-03-01T02:17:52;103052.72;;;-0.03;62.16
30614;BME280;17381;51.690;5.270;2023-03-01T02:25:00;103046.19;;;-0.13;62.54
30614;BME280;17381;51.690;5.270;2023-03-01T02:27:33;103052.13;;;-0.14;62.85
30614;BME280;17381;51.690;5.270;2023-03-01T02:30:35;103042.38;;;-0.19;62.95
30614;BME280;17381;51.690;5.270;2023-03-01T02:34:03;103060.28;;;-0.23;63.02
30614;BME280;17381;51.690;5.270;2023-03-01T02:37:08;103058.50;;;-0.24;63.12
30614;BME280;17381;51.690;5.270;2023-03-01T02:40:18;103047.03;;;-0.29;63.44
30614;BME280;17381;51.690;5.270;2023-03-01T02:43:25;103024.47;;;-0.48;63.03
30614;BME280;17381;51.690;5.270;2023-03-01T02:46:31;103054.53;;;-0.33;63.42
30614;BME280;17381;51.690;5.270;2023-03-01T02:49:41;103057.91;;;-0.34;63.22
30614;BME280;17381;51.690;5.270;2023-03-01T02:56:03;103029.88;;;-0.59;63.43
30614;BME280;17381;51.690;5.270;2023-03-01T02:58:58;103060.78;;;-0.45;64.14
30614;BME280;17381;51.690;5.270;2023-03-01T03:01:58;103048.44;;;-0.50;63.89
30614;BME280;17381;51.690;5.270;2023-03-01T03:05:01;103051.19;;;-0.47;63.67
30614;BME280;17381;51.690;5.270;2023-03-01T03:08:00;103053.69;;;-0.49;63.77
30614;BME280;17381;51.690;5.270;2023-03-01T03:11:08;103046.66;;;-0.51;64.25
30614;BME280;17381;51.690;5.270;2023-03-01T03:14:12;103044.16;;;-0.50;63.97
30614;BME280;17381;51.690;5.270;2023-03-01T03:17:16;102977.31;;;-0.91;63.97
30614;BME280;17381;51.690;5.270;2023-03-01T03:20:33;103053.44;;;-0.53;63.93
30614;BME280;17381;51.690;5.270;2023-03-01T09:59:16;102826.25;;;11.98;38.76
30614;BME280;17381;51.690;5.270;2023-03-01T10:16:59;102826.13;;;12.89;34.79
30614;BME280;17381;51.690;5.270;2023-03-01T10:32:51;102810.38;;;14.20;35.17
30614;BME280;17381;51.690;5.270;2023-03-01T10:35:43;102807.28;;;14.69;33.68
30614;BME280;17381;51.690;5.270;2023-03-01T10:39:15;102802.25;;;15.17;32.38
30614;BME280;17381;51.690;5.270;2023-03-01T10:42:51;102788.19;;;15.12;32.02
30614;BME280;17381;51.690;5.270;2023-03-01T10:45:39;102788.13;;;15.17;31.43
30614;BME280;17381;51.690;5.270;2023-03-01T10:48:25;102779.81;;;15.44;30.96
30614;BME280;17381;51.690;5.270;2023-03-01T11:04:38;102754.53;;;15.81;31.96
30614;BME280;17381;51.690;5.270;2023-03-01T11:07:46;102765.19;;;16.29;29.34
30614;BME280;17381;51.690;5.270;2023-03-01T11:11:06;102732.91;;;16.04;29.68
30614;BME280;17381;51.690;5.270;2023-03-01T11:14:38;102765.06;;;16.33;29.69
30614;BME280;17381;51.690;5.270;2023-03-01T11:27:50;102735.03;;;16.75;27.81
30614;BME280;17381;51.690;5.270;2023-03-01T11:31:22;102736.88;;;17.13;28.22
30614;BME280;17381;51.690;5.270;2023-03-01T11:38:24;102739.13;;;17.32;29.35
30614;BME280;17381;51.690;5.270;2023-03-01T11:41:31;102720.22;;;17.44;26.72
30614;BME280;17381;51.690;5.270;2023-03-01T11:44:39;102730.41;;;17.62;27.98
30614;BME280;17381;51.690;5.270;2023-03-01T11:51:00;102728.13;;;18.17;27.20
30614;BME280;17381;51.690;5.270;2023-03-01T11:58:15;102728.25;;;18.13;27.82
30614;BME280;17381;51.690;5.270;2023-03-01T12:28:02;102693.13;;;18.92;26.66
30614;BME280;17381;51.690;5.270;2023-03-01T12:55:54;102658.94;;;19.86;26.39
30614;BME280;17381;51.690;5.270;2023-03-01T12:59:05;102647.38;;;19.86;26.14
30614;BME280;17381;51.690;5.270;2023-03-01T13:02:27;102639.28;;;20.12;25.50
30614;BME280;17381;51.690;5.270;2023-03-01T13:09:23;102630.00;;;20.46;25.58
30614;BME280;17381;51.690;5.270;2023-03-01T13:15:41;102631.28;;;20.59;24.38
30614;BME280;17381;51.690;5.270;2023-03-01T13:22:25;102608.88;;;20.85;24.17
30614;BME280;17381;51.690;5.270;2023-03-01T13:29:26;102559.19;;;20.12;24.28
30614;BME280;17381;51.690;5.270;2023-03-01T13:32:28;102595.66;;;20.37;23.33
30614;BME280;17381;51.690;5.270;2023-03-01T13:35:43;102591.66;;;20.47;24.21
30614;BME280;17381;51.690;5.270;2023-03-01T13:49:03;102577.13;;;20.32;23.20
30614;BME280;17381;51.690;5.270;2023-03-01T13:55:51;102508.59;;;19.86;24.97
30614;BME280;17381;51.690;5.270;2023-03-01T14:02:00;102571.72;;;20.10;24.44
30614;BME280;17381;51.690;5.270;2023-03-01T14:05:09;102559.34;;;20.08;24.15
30614;BME280;17381;51.690;5.270;2023-03-01T14:08:20;102571.59;;;20.13;24.63
30614;BME280;17381;51.690;5.270;2023-03-01T14:12:00;102567.75;;;19.98;24.69
30614;BME280;17381;51.690;5.270;2023-03-01T14:18:29;102548.56;;;20.34;25.42
30614;BME280;17381;51.690;5.270;2023-03-01T14:21:29;102537.41;;;20.23;25.33
30614;BME280;17381;51.690;5.270;2023-03-01T14:24:35;102534.78;;;20.45;25.90
30614;BME280;17381;51.690;5.270;2023-03-01T14:27:47;102523.97;;;20.48;25.24
30614;BME280;17381;51.690;5.270;2023-03-01T14:31:00;102520.31;;;20.05;23.99
30614;BME280;17381;51.690;5.270;2023-03-01T14:37:17;102515.81;;;19.33;25.01
30614;BME280;17381;51.690;5.270;2023-03-01T14:40:49;102520.69;;;18.95;25.10
30614;BME280;17381;51.690;5.270;2023-03-01T14:51:10;102503.38;;;17.34;26.65
30614;BME280;17381;51.690;5.270;2023-03-01T14:54:01;102503.63;;;16.92;27.15
30614;BME280;17381;51.690;5.270;2023-03-01T14:56:57;102497.13;;;16.66;27.72
30614;BME280;17381;51.690;5.270;2023-03-01T14:59:45;102467.63;;;16.04;27.70
30614;BME280;17381;51.690;5.270;2023-03-01T15:02:41;102501.25;;;15.60;28.84
30614;BME280;17381;51.690;5.270;2023-03-01T15:09:31;102492.81;;;14.34;30.21
30614;BME280;17381;51.690;5.270;2023-03-01T15:26:45;102484.47;;;12.11;32.67
30614;BME280;17381;51.690;5.270;2023-03-01T15:29:32;102483.66;;;12.03;32.16
30614;BME280;17381;51.690;5.270;2023-03-01T15:40:28;102486.13;;;13.34;32.33
30614;BME280;17381;51.690;5.270;2023-03-01T15:47:32;102482.69;;;14.00;31.47
30614;BME280;17381;51.690;5.270;2023-03-01T15:50:38;102486.59;;;14.36;31.18
30614;BME280;17381;51.690;5.270;2023-03-01T15:53:33;102475.78;;;14.52;31.44
30614;BME280;17381;51.690;5.270;2023-03-01T15:56:15;102478.28;;;14.63;30.21
30614;BME280;17381;51.690;5.270;2023-03-01T16:07:17;102464.03;;;13.43;31.38
30614;BME280;17381;51.690;5.270;2023-03-01T16:14:07;102423.50;;;12.57;32.41
30614;BME280;17381;51.690;5.270;2023-03-01T16:17:07;102450.00;;;12.40;32.44
30614;BME280;17381;51.690;5.270;2023-03-01T16:20:50;102460.00;;;11.83;32.84
30614;BME280;17381;51.690;5.270;2023-03-01T16:24:01;102416.38;;;11.05;33.57
30614;BME280;17381;51.690;5.270;2023-03-01T16:27:28;102463.75;;;10.84;33.98
30614;BME280;17381;51.690;5.270;2023-03-01T16:36:42;102448.75;;;9.92;35.75
30614;BME280;17381;51.690;5.270;2023-03-01T16:39:42;102467.09;;;9.78;35.27
30614;BME280;17381;51.690;5.270;2023-03-01T16:43:15;102473.97;;;9.56;35.39
30614;BME280;17381;51.690;5.270;2023-03-01T17:15:02;102460.44;;;7.97;39.25
30614;BME280;17381;51.690;5.270;2023-03-01T17:26:29;102470.44;;;7.57;40.41
30614;BME280;17381;51.690;5.270;2023-03-01T17:29:29;102461.63;;;7.52;40.34
30614;BME280;17381;51.690;5.270;2023-03-01T17:32:37;102452.66;;;7.32;40.10
30614;BME280;17381;51.690;5.270;2023-03-01T17:35:13;102465.69;;;7.30;40.35
30614;BME280;17381;51.690;5.270;2023-03-01T17:45:59;102473.97;;;7.02;40.85
30614;BME280;17381;51.690;5.270;2023-03-01T18:00:25;102488.16;;;6.61;41.51
30614;BME280;17381;51.690;5.270;2023-03-01T18:02:57;102481.06;;;6.54;41.68
30614;BME280;17381;51.690;5.270;2023-03-01T18:09:25;102503.50;;;6.44;42.38
30614;BME280;17381;51.690;5.270;2023-03-01T18:38:51;102490.91;;;5.79;45.11
30614;BME280;17381;51.690;5.270;2023-03-01T18:48:57;102436.84;;;5.31;44.97
30614;BME280;17381;51.690;5.270;2023-03-01T18:51:29;102490.50;;;5.59;45.14
30614;BME280;17381;51.690;5.270;2023-03-01T19:02:23;102500.28;;;5.32;45.27
30614;BME280;17381;51.690;5.270;2023-03-01T19:05:36;102498.50;;;5.29;45.91
30614;BME280;17381;51.690;5.270;2023-03-01T19:09:05;102498.38;;;5.23;46.23
30614;BME280;17381;51.690;5.270;2023-03-01T19:15:12;102492.91;;;5.12;45.92
30614;BME280;17381;51.690;5.270;2023-03-01T19:40:27;102497.47;;;4.51;47.49
30614;BME280;17381;51.690;5.270;2023-03-01T19:43:18;102452.41;;;4.21;47.77
30614;BME280;17381;51.690;5.270;2023-03-01T19:50:31;102499.78;;;4.39;48.24
30614;BME280;17381;51.690;5.270;2023-03-01T19:53:40;102482.91;;;4.25;48.08
30614;BME280;17381;51.690;5.270;2023-03-01T19:56:36;102479.22;;;4.17;48.10
30614;BME280;17381;51.690;5.270;2023-03-01T19:59:31;102501.13;;;4.25;48.19
30614;BME280;17381;51.690;5.270;2023-03-01T20:06:15;102453.00;;;3.77;48.87
30614;BME280;17381;51.690;5.270;2023-03-01T20:09:37;102489.03;;;3.95;49.07
30614;BME280;17381;51.690;5.270;2023-03-01T20:12:24;102502.94;;;3.96;49.22
30614;BME280;17381;51.690;5.270;2023-03-01T20:15:03;102506.41;;;3.96;49.22
30614;BME280;17381;51.690;5.270;2023-03-01T20:17:59;102491.38;;;3.86;49.38
30614;BME280;17381;51.690;5.270;2023-03-01T20:21:07;102503.50;;;3.85;49.68
30614;BME280;17381;51.690;5.270;2023-03-01T20:24:19;102504.38;;;3.86;49.32
30614;BME280;17381;51.690;5.270;2023-03-01T20:31:15;102493.44;;;3.67;50.08
30614;BME280;17381;51.690;5.270;2023-03-01T20:34:18;102501.25;;;3.67;50.64
30614;BME280;17381;51.690;5.270;2023-03-01T20:58:20;102489.28;;;3.44;50.78
30614;BME280;17381;51.690;5.270;2023-03-01T21:01:16;102488.19;;;3.37;50.76
30614;BME280;17381;51.690;5.270;2023-03-01T21:13:51;102484.19;;;3.20;51.96
30614;BME280;17381;51.690;5.270;2023-03-01T21:17:05;102487.47;;;3.13;52.31
30614;BME280;17381;51.690;5.270;2023-03-01T21:20:12;102482.09;;;3.08;52.19
30614;BME280;17381;51.690;5.270;2023-03-01T21:31:43;102483.25;;;2.89;54.05
30614;BME280;17381;51.690;5.270;2023-03-01T21:39:14;102478.34;;;2.71;54.85
30614;BME280;17381;51.690;5.270;2023-03-01T21:41:48;102485.34;;;2.74;54.28
30614;BME280;17381;51.690;5.270;2023-03-01T21:45:01;102459.94;;;2.65;54.18
30614;BME280;17381;51.690;5.270;2023-03-01T21:48:00;102480.94;;;2.71;54.44
30614;BME280;17381;51.690;5.270;2023-03-01T21:54:52;102485.97;;;2.67;54.36
30614;BME280;17381;51.690;5.270;2023-03-01T21:58:14;102486.78;;;2.66;54.84
30614;BME280;17381;51.690;5.270;2023-03-01T22:01:30;102467.31;;;2.53;54.85
30614;BME280;17381;51.690;5.270;2023-03-01T22:04:33;102455.69;;;2.42;54.85
30614;BME280;17381;51.690;5.270;2023-03-01T22:07:31;102479.41;;;2.52;54.74
30614;BME280;17381;51.690;5.270;2023-03-01T22:10:22;102487.28;;;2.55;54.78
30614;BME280;17381;51.690;5.270;2023-03-01T22:13:08;102489.69;;;2.49;54.86
30614;BME280;17381;51.690;5.270;2023-03-01T22:15:54;102493.16;;;2.50;55.28
30614;BME280;17381;51.690;5.270;2023-03-01T22:19:07;102491.41;;;2.49;55.55
30614;BME280;17381;51.690;5.270;2023-03-01T22:21:52;102486.94;;;2.45;55.71
30614;BME280;17381;51.690;5.270;2023-03-01T22:25:52;102492.72;;;2.37;55.80
30614;BME280;17381;51.690;5.270;2023-03-01T22:28:37;102445.09;;;2.10;55.80
30614;BME280;17381;51.690;5.270;2023-03-01T22:34:48;102504.56;;;2.29;56.03
30614;BME280;17381;51.690;5.270;2023-03-01T22:37:14;102473.03;;;2.17;56.00
30614;BME280;17381;51.690;5.270;2023-03-01T22:39:48;102501.16;;;2.30;55.84
30614;BME280;17381;51.690;5.270;2023-03-01T22:42:21;102498.47;;;2.27;56.45
30614;BME280;17381;51.690;5.270;2023-03-01T22:44:59;102493.78;;;2.17;56.50
30614;BME280;17381;51.690;5.270;2023-03-01T22:47:38;102460.00;;;1.91;56.46
30614;BME280;17381;51.690;5.270;2023-03-01T22:50:16;102510.41;;;2.24;56.50
30614;BME280;17381;51.690;5.270;2023-03-01T22:52:45;102492.88;;;2.16;56.37
30614;BME280;17381;51.690;5.270;2023-03-01T22:55:25;102512.06;;;2.22;56.31
30614;BME280;17381;51.690;5.270;2023-03-01T22:58:05;102489.19;;;2.10;56.44
30614;BME280;17381;51.690;5.270;2023-03-01T23:00:37;102475.88;;;2.01;56.25
30614;BME280;17381;51.690;5.270;2023-03-01T23:06:03;102504.97;;;2.16;56.46
30614;BME280;17381;51.690;5.270;2023-03-01T23:08:47;102497.06;;;2.13;56.68
30614;BME280;17381;51.690;5.270;2023-03-01T23:11:28;102501.38;;;2.12;57.09
30614;BME280;17381;51.690;5.270;2023-03-01T23:14:27;102439.63;;;1.78;57.31
30614;BME280;17381;51.690;5.270;2023-03-01T23:17:28;102492.44;;;2.04;56.87
30614;BME280;17381;51.690;5.270;2023-03-01T23:20:14;102480.09;;;1.97;57.19
30614;BME280;17381;51.690;5.270;2023-03-01T23:23:10;102491.50;;;2.02;57.23
30614;BME280;17381;51.690;5.270;2023-03-01T23:25:57;102494.13;;;2.04;57.54
30614;BME280;17381;51.690;5.270;2023-03-01T23:29:30;102486.16;;;1.98;57.64
30614;BME280;17381;51.690;5.270;2023-03-01T23:32:18;102491.22;;;1.94;57.66
30614;BME280;17381;51.690;5.270;2023-03-01T23:34:51;102485.81;;;1.88;57.82
30614;BME280;17381;51.690;5.270;2023-03-01T23:41:33;102482.41;;;1.89;57.66
30614;BME280;17381;51.690;5.270;2023-03-01T23:44:43;102482.16;;;1.83;58.26
30614;BME280;17381;51.690;5.270;2023-03-01T23:47:38;102478.69;;;1.83;58.18
30614;BME280;17381;51.690;5.270;2023-03-01T23:50:33;102479.44;;;1.79;58.32
30614;BME280;17381;51.690;5.270;2023-03-01T23:53:43;102476.75;;;1.77;58.30
30614;BME280;17381;51.690;5.270;2023-03-01T23:56:47;102469.81;;;1.76;58.44
